Accueil
METAR-TAF:

METAR-TAF

Aéroports :

Cerklje ob Krki, Slovénie

latitude: 45-53-59N, longitude: 15-30-55E, altitude: 157 m

Observation

Le bulletin a été fait il y a 13 minutes, à 14:00 UTC
Vent 4 kt de est/nord-est, variant entre nord/nord-est et est
Température 2°C
Humidité 100%
Pression 1020 hPa
Visibilité: 0600 m
brouillard

METAR: LJCE 261400Z 07004KT 030V100 0600 FG VV003 02/02 Q1020 RMK RED

Heure: 15:13 (14:13 UTC)

Prévision

Le bulletin a été fait il y a 3 heures et 13 minutes, à 11:00 UTC
Prévision valable du 26 à 12 UTC au 26 à 21 UTC
Vent 4 kt de est
Visibilité: 1200 m
Ciel couvert à une hauteur de 500 ft
brume
Temporairement
du 26 à 12 UTC au 26 à 18 UTC
Visibilité: 2500 m
Nuages épars à une hauteur de 400 ft
Nuages fragmentés à une hauteur de 1500 ft
Ciel couvert à une hauteur de 4000 ft
pluie faible, brume

TAF: LJCE 261100Z 2612/2621 08004KT 1200 BR OVC005 TEMPO 2612/2618 2500 -RA BR SCT004 BKN015 OVC040

Observations et prévisions météorologiques de plus de 4000 aéroports (messages METAR et TAF).

Les stations disponibles sont représentées par des disques jaunes et rouges sur la carte.

Passer la souris dessus pour voir le nom de la station.

Cliquer dessus pour voir les observations et prévisions météorologiques.

Pour changer de carte: cliquez sur les boutons verts avec une croix noire pour zoomer, sur le bouton vert avec un tiret pour effectuer un zoom arrière, ou sur les flèches vertes pour les cartes adjacentes.


METAR-TAF: